Time;durP1;ratioP1;P1;durP2;ratioP2;P2;SDS_P1;SDS_P2;PMS_P1;PMS_P2;Temp;Humidity;BMP_temperature;BMP_pressure;BME280_temperature;BME280_humidity;BME280_pressure;Samples;Min_cycle;Max_cycle;Signal;HPM_P1;HPM_P2
2023/08/05 00:00:56;;;;;;;7.00;4.10;;;18.40;91.70;;;;;;5071979;28;20025;-76
2023/08/05 00:03:22;;;;;;;6.03;3.72;;;18.40;91.60;;;;;;5072124;28;20035;-75
2023/08/05 00:05:47;;;;;;;6.88;3.72;;;18.40;91.80;;;;;;5073091;28;20403;-76
2023/08/05 00:08:13;;;;;;;5.88;4.45;;;18.30;91.80;;;;;;5072987;28;20025;-76
2023/08/05 00:10:43;;;;;;;6.90;4.00;;;18.20;91.80;;;;;;5055391;28;20071;-77
2023/08/05 00:13:09;;;;;;;6.72;3.63;;;18.20;92.00;;;;;;5072849;28;20033;-75
2023/08/05 00:15:34;;;;;;;6.57;4.13;;;18.20;92.00;;;;;;5059069;28;20029;-75
2023/08/05 00:18:00;;;;;;;6.70;3.70;;;18.30;92.10;;;;;;5059169;28;20032;-76
2023/08/05 00:20:25;;;;;;;5.55;3.50;;;18.30;92.10;;;;;;5075943;28;20025;-76
2023/08/05 00:22:51;;;;;;;5.28;3.55;;;18.30;92.10;;;;;;5076750;28;20021;-76
2023/08/05 00:25:17;;;;;;;7.28;3.60;;;18.30;92.00;;;;;;5076708;28;20021;-75
2023/08/05 00:27:42;;;;;;;5.85;3.33;;;18.30;92.10;;;;;;5076670;28;20383;-76
2023/08/05 00:30:08;;;;;;;5.82;2.95;;;18.30;92.10;;;;;;5076739;28;20051;-76
2023/08/05 00:32:36;;;;;;;9.73;3.17;;;18.30;92.10;;;;;;5075519;28;20033;-75
2023/08/05 00:35:04;;;;;;;6.78;3.35;;;18.30;92.20;;;;;;5076435;28;20045;-75
2023/08/05 00:37:29;;;;;;;5.03;3.25;;;18.20;92.30;;;;;;5058891;28;20035;-76
2023/08/05 00:39:55;;;;;;;5.93;3.25;;;18.20;92.40;;;;;;5076139;28;20048;-75
2023/08/05 00:42:21;;;;;;;7.13;3.67;;;18.30;92.50;;;;;;5076424;28;20033;-75
2023/08/05 00:44:46;;;;;;;8.30;3.65;;;18.30;92.50;;;;;;5076351;28;20033;-75
2023/08/05 00:47:15;;;;;;;6.40;4.20;;;18.20;92.40;;;;;;5076310;28;20029;-76
2023/08/05 00:49:41;;;;;;;6.55;4.15;;;18.20;92.50;;;;;;5075208;28;20025;-76
2023/08/05 00:52:07;;;;;;;8.32;4.20;;;18.30;92.60;;;;;;5076160;28;20063;-75
2023/08/05 00:54:33;;;;;;;8.13;4.28;;;18.30;92.60;;;;;;5076099;28;20052;-76
2023/08/05 00:56:59;;;;;;;7.00;3.95;;;18.30;92.60;;;;;;5076121;28;20020;-76
2023/08/05 00:59:25;;;;;;;11.10;4.55;;;18.30;92.50;;;;;;5075193;28;20442;-76
2023/08/05 01:01:50;;;;;;;8.02;4.63;;;18.30;92.40;;;;;;5075109;28;20041;-75
2023/08/05 01:04:16;;;;;;;9.23;4.38;;;18.30;92.50;;;;;;5075957;28;20039;-75
2023/08/05 01:06:43;;;;;;;9.30;4.47;;;18.20;92.50;;;;;;5076095;28;20029;-76
2023/08/05 01:09:08;;;;;;;11.05;6.75;;;18.20;92.60;;;;;;5075906;28;20480;-76
2023/08/05 01:11:35;;;;;;;18.02;8.80;;;18.20;93.20;;;;;;5074913;28;20032;-75
2023/08/05 01:14:01;;;;;;;17.08;9.07;;;18.20;92.90;;;;;;5075703;28;20017;-76
2023/08/05 01:16:26;;;;;;;22.08;12.13;;;18.20;92.90;;;;;;5075747;28;20060;-75
2023/08/05 01:18:53;;;;;;;21.73;11.95;;;18.20;92.70;;;;;;5074798;28;20081;-76
2023/08/05 01:21:36;;;;;;;21.20;11.23;;;18.20;92.80;;;;;;5074740;28;20021;-76
2023/08/05 01:24:19;;;;;;;18.88;10.32;;;18.20;92.90;;;;;;5074786;28;20033;-76
2023/08/05 01:26:45;;;;;;;18.38;10.70;;;18.20;93.00;;;;;;5074794;28;20028;-75
2023/08/05 01:29:11;;;;;;;19.63;9.52;;;18.10;93.10;;;;;;5075543;28;20085;-75
2023/08/05 01:31:37;;;;;;;16.45;9.27;;;18.10;93.20;;;;;;5074449;28;20040;-75
2023/08/05 01:34:03;;;;;;;16.08;9.02;;;18.20;93.20;;;;;;5075249;28;20032;-76
2023/08/05 01:36:30;;;;;;;15.20;8.30;;;18.20;93.10;;;;;;5074396;28;20029;-76
2023/08/05 01:38:56;;;;;;;16.00;9.40;;;18.20;93.10;;;;;;5075334;28;20028;-76
2023/08/05 01:41:21;;;;;;;12.95;7.97;;;18.20;93.10;;;;;;5074253;28;20053;-76
2023/08/05 01:43:47;;;;;;;15.30;8.32;;;18.20;92.90;;;;;;5075192;28;20029;-76
2023/08/05 01:46:13;;;;;;;14.40;8.25;;;18.20;92.90;;;;;;5057553;28;20055;-76
2023/08/05 01:48:38;;;;;;;13.18;7.65;;;18.20;92.90;;;;;;5057655;28;20033;-75
2023/08/05 01:51:04;;;;;;;12.07;7.18;;;18.20;92.90;;;;;;5075102;28;20045;-76
2023/08/05 01:53:29;;;;;;;10.07;6.60;;;18.20;93.20;;;;;;5074982;28;20037;-75
2023/08/05 01:55:55;;;;;;;12.90;6.80;;;18.10;92.80;;;;;;5074189;28;20037;-75
2023/08/05 01:58:21;;;;;;;11.48;6.35;;;18.10;92.80;;;;;;5074063;28;20025;-75
2023/08/05 02:00:50;;;;;;;10.25;6.10;;;18.10;92.80;;;;;;5075041;28;20051;-76
2023/08/05 02:03:16;;;;;;;10.82;6.25;;;18.10;92.80;;;;;;5073859;28;20104;-76
2023/08/05 02:05:41;;;;;;;11.18;5.60;;;18.10;92.80;;;;;;5073928;28;20029;-76
2023/08/05 02:08:07;;;;;;;9.07;5.68;;;18.10;92.70;;;;;;5073829;28;20033;-77
2023/08/05 02:10:33;;;;;;;10.10;5.53;;;18.10;92.80;;;;;;5073708;28;20061;-75
2023/08/05 02:12:58;;;;;;;11.73;6.10;;;18.00;92.80;;;;;;5074618;28;20021;-76
2023/08/05 02:15:26;;;;;;;10.60;6.32;;;18.00;92.90;;;;;;5073605;28;20467;-76
2023/08/05 02:17:51;;;;;;;11.75;6.50;;;18.00;93.00;;;;;;5073736;28;20032;-75
2023/08/05 02:20:17;;;;;;;13.68;7.00;;;18.00;93.00;;;;;;5056961;28;20033;-75
2023/08/05 02:22:43;;;;;;;12.77;7.00;;;18.00;92.90;;;;;;5056828;28;20037;-76
2023/08/05 02:25:08;;;;;;;11.70;6.38;;;17.90;93.00;;;;;;5073572;28;20028;-76
2023/08/05 02:27:34;;;;;;;10.25;6.95;;;17.90;93.20;;;;;;5073460;28;20033;-75
2023/08/05 02:30:00;;;;;;;12.23;6.88;;;17.80;93.10;;;;;;5073319;28;20041;-75
2023/08/05 02:32:25;;;;;;;13.55;5.93;;;17.80;93.20;;;;;;5074435;28;20093;-75
2023/08/05 02:34:51;;;;;;;11.82;7.03;;;17.80;93.30;;;;;;5074071;28;20078;-75
2023/08/05 02:37:16;;;;;;;10.98;6.70;;;17.80;93.30;;;;;;5072172;28;20044;-76
2023/08/05 02:39:42;;;;;;;9.95;6.47;;;17.80;93.30;;;;;;5073259;28;20024;-75
2023/08/05 02:42:08;;;;;;;9.32;6.13;;;17.80;93.30;;;;;;5073971;28;20052;-75
2023/08/05 02:44:33;;;;;;;10.93;6.35;;;17.80;93.40;;;;;;5073202;28;20029;-75
2023/08/05 02:46:59;;;;;;;11.30;6.32;;;17.70;93.40;;;;;;5073017;28;20029;-75
2023/08/05 02:49:24;;;;;;;9.48;6.15;;;17.70;93.50;;;;;;5073966;28;20029;-75
2023/08/05 02:51:50;;;;;;;9.55;6.03;;;17.70;93.60;;;;;;5073911;28;20036;-76
2023/08/05 02:54:19;;;;;;;11.70;5.65;;;17.70;93.70;;;;;;5072953;28;20033;-75
2023/08/05 02:56:45;;;;;;;8.82;5.35;;;17.70;93.70;;;;;;5072900;28;20032;-76
2023/08/05 02:59:11;;;;;;;10.63;5.25;;;17.70;93.60;;;;;;5073791;28;20032;-76
2023/08/05 03:01:36;;;;;;;11.38;5.88;;;17.60;93.70;;;;;;5072865;28;20029;-76
2023/08/05 03:04:02;;;;;;;10.20;6.03;;;17.60;93.80;;;;;;5056149;28;20029;-75
2023/08/05 03:06:28;;;;;;;10.30;5.60;;;17.70;93.90;;;;;;5073643;28;20037;-76
2023/08/05 03:08:54;;;;;;;12.93;5.70;;;17.60;93.70;;;;;;5073626;28;20052;-75
2023/08/05 03:11:20;;;;;;;11.43;6.25;;;17.60;93.60;;;;;;5056109;28;20025;-76
2023/08/05 03:13:45;;;;;;;10.45;5.60;;;17.60;93.50;;;;;;5072489;28;20040;-77
2023/08/05 03:16:12;;;;;;;8.70;5.65;;;17.50;93.60;;;;;;5072701;28;20025;-75
2023/08/05 03:18:38;;;;;;;8.95;5.40;;;17.40;93.60;;;;;;5072422;28;20025;-75
2023/08/05 03:21:04;;;;;;;9.68;5.50;;;17.40;93.80;;;;;;5072423;28;20047;-75
2023/08/05 03:23:30;;;;;;;9.18;5.38;;;17.40;93.80;;;;;;5073432;28;20072;-75
2023/08/05 03:25:55;;;;;;;8.93;5.72;;;17.30;94.30;;;;;;5073349;28;20059;-76
2023/08/05 03:28:21;;;;;;;11.52;5.13;;;17.30;93.90;;;;;;5039297;28;20029;-75
2023/08/05 03:30:46;;;;;;;8.45;4.95;;;17.30;93.90;;;;;;5072440;28;20029;-75
2023/08/05 03:33:12;;;;;;;11.07;5.22;;;17.30;93.90;;;;;;5072323;28;20017;-75
2023/08/05 03:35:43;;;;;;;10.15;5.35;;;17.30;94.10;;;;;;5073185;28;20100;-75
2023/08/05 03:38:08;;;;;;;9.27;5.07;;;17.40;93.70;;;;;;5073257;28;20024;-75
2023/08/05 03:40:34;;;;;;;9.50;5.53;;;17.30;93.60;;;;;;5073017;28;20069;-76
2023/08/05 03:42:59;;;;;;;8.18;5.13;;;17.20;93.60;;;;;;5055478;28;20031;-75
2023/08/05 03:45:25;;;;;;;8.95;5.55;;;17.20;93.80;;;;;;5072213;28;20025;-75
2023/08/05 03:47:51;;;;;;;7.78;5.18;;;17.30;93.90;;;;;;5073141;28;20029;-76
2023/08/05 03:50:17;;;;;;;9.98;4.93;;;17.20;93.60;;;;;;5072770;28;20021;-75
2023/08/05 03:52:43;;;;;;;8.07;4.90;;;17.20;93.50;;;;;;5055389;28;20028;-75
2023/08/05 03:55:09;;;;;;;7.40;4.85;;;17.10;93.70;;;;;;5072000;28;20092;-75
2023/08/05 03:57:34;;;;;;;9.63;5.25;;;17.10;93.70;;;;;;5055426;28;20101;-75
2023/08/05 04:00:00;;;;;;;9.80;4.90;;;17.00;93.70;;;;;;5072994;28;20036;-76
2023/08/05 04:02:26;;;;;;;11.55;5.03;;;16.90;93.80;;;;;;5072987;28;20052;-75
2023/08/05 04:04:52;;;;;;;7.55;5.07;;;16.80;93.90;;;;;;5073020;28;20021;-75
2023/08/05 04:07:19;;;;;;;7.55;5.07;;;16.80;94.10;;;;;;5072947;28;20085;-75
2023/08/05 04:09:47;;;;;;;9.23;5.50;;;16.70;94.30;;;;;;5071918;28;20032;-75
2023/08/05 04:12:14;;;;;;;8.93;5.25;;;16.60;94.30;;;;;;5071977;28;20029;-75
2023/08/05 04:14:43;;;;;;;10.40;5.20;;;16.60;94.50;;;;;;5072864;28;20100;-75
2023/08/05 04:17:09;;;;;;;13.13;5.72;;;16.70;94.60;;;;;;5071956;28;20021;-75
2023/08/05 04:19:36;;;;;;;7.40;4.82;;;16.70;94.60;;;;;;5055278;28;20036;-75
2023/08/05 04:22:03;;;;;;;9.57;5.00;;;16.70;94.50;;;;;;5071889;28;20025;-76
2023/08/05 04:24:29;;;;;;;8.68;4.95;;;16.70;94.40;;;;;;5072822;28;20067;-75
2023/08/05 04:26:55;;;;;;;8.07;4.82;;;16.80;94.40;;;;;;5072774;28;20032;-76
2023/08/05 04:29:24;;;;;;;8.32;4.80;;;16.80;94.30;;;;;;5072745;28;20040;-75
2023/08/05 04:31:51;;;;;;;8.13;5.10;;;16.90;94.20;;;;;;5072711;28;20052;-75
2023/08/05 04:34:17;;;;;;;12.63;5.18;;;17.00;94.00;;;;;;5071632;28;20089;-76
2023/08/05 04:36:51;;;;;;;10.15;5.28;;;16.90;94.00;;;;;;5071810;28;20025;-76
2023/08/05 04:39:18;;;;;;;9.00;5.25;;;17.00;93.90;;;;;;5072837;28;20471;-75
2023/08/05 04:41:45;;;;;;;8.52;5.00;;;17.00;93.90;;;;;;5072474;28;20056;-75
2023/08/05 04:44:11;;;;;;;7.13;4.97;;;17.00;93.90;;;;;;5072632;28;20075;-75
2023/08/05 04:46:37;;;;;;;10.18;5.10;;;17.00;93.90;;;;;;5072548;28;20044;-75
2023/08/05 04:49:05;;;;;;;8.32;4.97;;;17.00;93.90;;;;;;5054917;28;20029;-75
2023/08/05 04:51:30;;;;;;;10.50;5.45;;;17.00;93.90;;;;;;5072545;28;20051;-75
2023/08/05 04:53:56;;;;;;;9.93;5.63;;;16.90;94.00;;;;;;5072567;28;20033;-76
2023/08/05 04:56:25;;;;;;;9.68;5.68;;;16.90;94.20;;;;;;5072482;28;20022;-75
2023/08/05 04:58:51;;;;;;;10.35;5.60;;;17.00;94.20;;;;;;5071449;28;20029;-75
2023/08/05 05:01:17;;;;;;;9.13;5.28;;;17.00;94.20;;;;;;5073974;28;20036;-76
2023/08/05 05:03:46;;;;;;;10.27;6.18;;;17.00;94.10;;;;;;5076043;28;20032;-76
2023/08/05 05:06:12;;;;;;;10.68;5.72;;;17.00;94.10;;;;;;5075007;28;20029;-76
2023/08/05 05:08:38;;;;;;;9.07;5.97;;;17.00;94.10;;;;;;5075940;28;20029;-76
2023/08/05 05:11:03;;;;;;;11.80;5.97;;;17.10;94.20;;;;;;5075891;28;20031;-76
2023/08/05 05:13:29;;;;;;;13.95;6.30;;;17.10;94.20;;;;;;5074842;28;20029;-76
2023/08/05 05:15:55;;;;;;;10.70;6.63;;;17.00;94.20;;;;;;5058263;28;20029;-75
2023/08/05 05:18:20;;;;;;;11.30;5.72;;;17.00;94.30;;;;;;5058156;28;20028;-76
2023/08/05 05:20:54;;;;;;;13.18;6.50;;;17.00;94.40;;;;;;5058108;28;20029;-76
2023/08/05 05:23:20;;;;;;;12.48;6.47;;;17.10;94.50;;;;;;5074828;28;20319;-76
2023/08/05 05:25:46;;;;;;;11.35;6.50;;;17.10;94.50;;;;;;5075565;28;20031;-76
2023/08/05 05:28:11;;;;;;;11.07;5.78;;;17.00;94.50;;;;;;5074747;28;20080;-76
2023/08/05 05:30:37;;;;;;;9.30;6.03;;;17.00;94.50;;;;;;5075528;28;20120;-75
2023/08/05 05:33:03;;;;;;;9.75;6.15;;;16.90;94.60;;;;;;5075372;28;20060;-76
2023/08/05 05:35:29;;;;;;;13.05;6.82;;;17.00;94.70;;;;;;5075338;28;20025;-75
2023/08/05 05:37:55;;;;;;;11.32;6.20;;;17.00;94.70;;;;;;5075394;28;20025;-75
2023/08/05 05:40:21;;;;;;;10.02;6.38;;;17.00;94.80;;;;;;5075156;28;20496;-76
2023/08/05 05:42:49;;;;;;;12.32;6.82;;;17.00;94.90;;;;;;5075306;28;20028;-75
2023/08/05 05:45:15;;;;;;;15.63;6.82;;;17.00;94.90;;;;;;5058045;28;20028;-76
2023/08/05 05:47:40;;;;;;;12.02;6.28;;;17.10;94.90;;;;;;5075271;28;20025;-76
2023/08/05 05:50:07;;;;;;;13.80;7.00;;;17.10;94.80;;;;;;5074160;28;20029;-76
2023/08/05 05:52:33;;;;;;;11.25;6.45;;;17.10;94.80;;;;;;5075011;28;20060;-74
2023/08/05 05:54:59;;;;;;;11.07;7.00;;;17.10;94.90;;;;;;5075012;28;20045;-76
2023/08/05 05:57:24;;;;;;;12.32;7.30;;;17.10;94.90;;;;;;5074153;28;20025;-75
2023/08/05 05:59:50;;;;;;;11.73;6.90;;;17.10;95.00;;;;;;5040835;28;20101;-76
2023/08/05 06:02:16;;;;;;;11.30;6.47;;;17.00;95.10;;;;;;5057445;28;20104;-75
2023/08/05 06:04:43;;;;;;;13.18;7.22;;;17.00;95.20;;;;;;5074858;28;20065;-76
2023/08/05 06:07:09;;;;;;;11.20;7.05;;;17.00;95.20;;;;;;5073816;28;20051;-76
2023/08/05 06:09:35;;;;;;;13.57;7.57;;;17.00;95.30;;;;;;5073842;28;20021;-76
2023/08/05 06:12:01;;;;;;;13.90;8.20;;;17.00;95.40;;;;;;5074462;28;20049;-75
2023/08/05 06:14:28;;;;;;;13.55;8.10;;;17.00;95.30;;;;;;5073596;28;20027;-75
2023/08/05 06:16:54;;;;;;;13.85;8.50;;;17.00;95.40;;;;;;5074618;28;20048;-75
2023/08/05 06:19:20;;;;;;;22.08;8.27;;;17.00;95.40;;;;;;5074747;28;20021;-75
2023/08/05 06:21:45;;;;;;;13.30;8.45;;;17.00;95.60;;;;;;5074513;28;20033;-75
2023/08/05 06:24:11;;;;;;;13.82;7.45;;;17.00;95.70;;;;;;5074523;28;20036;-76
2023/08/05 06:26:37;;;;;;;14.43;7.32;;;17.00;95.80;;;;;;5073527;28;20033;-76
2023/08/05 06:29:03;;;;;;;14.23;7.25;;;17.00;96.20;;;;;;5073360;28;20029;-76
2023/08/05 06:31:28;;;;;;;11.77;7.20;;;17.00;96.00;;;;;;5073305;28;20040;-76
2023/08/05 06:33:54;;;;;;;12.38;6.78;;;17.00;96.10;;;;;;5056697;28;20037;-76
2023/08/05 06:36:20;;;;;;;15.80;6.53;;;17.00;96.30;;;;;;5074280;28;20098;-76
2023/08/05 06:38:45;;;;;;;12.38;6.47;;;17.10;96.50;;;;;;5073268;28;20040;-77
2023/08/05 06:41:11;;;;;;;12.23;6.20;;;17.10;96.30;;;;;;5072963;28;20053;-76
2023/08/05 06:43:36;;;;;;;12.35;6.20;;;17.10;96.30;;;;;;5073181;28;20043;-77
2023/08/05 06:46:02;;;;;;;11.57;6.13;;;17.10;96.10;;;;;;5073098;28;20029;-77
2023/08/05 06:48:28;;;;;;;11.13;6.20;;;17.10;96.10;;;;;;5074065;28;20037;-76
2023/08/05 06:50:53;;;;;;;10.65;5.80;;;17.10;96.40;;;;;;5056422;28;20032;-77
2023/08/05 06:53:19;;;;;;;11.10;5.70;;;17.10;96.10;;;;;;5072996;28;20029;-76
2023/08/05 06:55:44;;;;;;;10.13;5.50;;;17.10;96.10;;;;;;5072994;28;20044;-76
2023/08/05 06:58:10;;;;;;;11.30;5.72;;;17.20;96.20;;;;;;5073856;28;20033;-77
2023/08/05 07:00:36;;;;;;;12.68;5.75;;;17.30;96.30;;;;;;5072837;28;20021;-75
2023/08/05 07:03:01;;;;;;;7.30;4.85;;;17.30;96.20;;;;;;5073783;28;20033;-76
2023/08/05 07:05:29;;;;;;;10.43;5.40;;;17.30;96.20;;;;;;5056191;28;20029;-76
2023/08/05 07:07:54;;;;;;;10.02;5.22;;;17.30;96.00;;;;;;5073659;28;20021;-76
2023/08/05 07:10:20;;;;;;;11.02;6.32;;;17.40;96.00;;;;;;5073643;28;20090;-76
2023/08/05 07:12:45;;;;;;;10.32;5.53;;;17.50;95.90;;;;;;5072627;28;20033;-76
2023/08/05 07:15:11;;;;;;;10.95;5.28;;;17.50;95.80;;;;;;5073511;28;20037;-76
2023/08/05 07:17:38;;;;;;;9.02;5.40;;;17.50;95.90;;;;;;5055870;28;20025;-76
2023/08/05 07:20:05;;;;;;;11.85;6.15;;;17.60;95.90;;;;;;5072466;28;20029;-76
2023/08/05 07:22:30;;;;;;;10.30;5.68;;;17.60;95.70;;;;;;5073607;28;20052;-76
2023/08/05 07:24:56;;;;;;;12.65;6.57;;;17.50;95.30;;;;;;5072908;28;20044;-76
2023/08/05 07:27:22;;;;;;;12.88;6.60;;;17.60;95.30;;;;;;5073400;28;20112;-76
2023/08/05 07:29:48;;;;;;;11.95;6.40;;;17.60;95.40;;;;;;5073383;28;20075;-76
2023/08/05 07:32:13;;;;;;;11.27;6.45;;;17.60;95.50;;;;;;5072250;28;20029;-76
2023/08/05 07:34:40;;;;;;;10.07;6.53;;;17.70;95.60;;;;;;5072075;28;20036;-76
2023/08/05 07:37:05;;;;;;;11.85;7.22;;;17.70;95.20;;;;;;5073282;28;20057;-76
2023/08/05 07:39:34;;;;;;;16.45;7.50;;;17.80;95.10;;;;;;5073236;28;20025;-76
2023/08/05 07:42:03;;;;;;;14.23;8.15;;;17.80;95.50;;;;;;5072978;28;20100;-76
2023/08/05 07:44:33;;;;;;;14.25;7.00;;;17.80;95.20;;;;;;5072309;28;20044;-76
2023/08/05 07:46:59;;;;;;;13.23;8.25;;;17.80;95.00;;;;;;5072113;28;20025;-76
2023/08/05 07:49:26;;;;;;;14.30;8.00;;;17.90;95.00;;;;;;5072203;28;20025;-76
2023/08/05 07:51:53;;;;;;;14.00;8.68;;;17.90;94.70;;;;;;5073101;28;20032;-76
2023/08/05 07:54:20;;;;;;;16.35;9.35;;;17.90;94.90;;;;;;5072112;28;20025;-75
2023/08/05 07:56:46;;;;;;;19.33;10.38;;;17.90;95.10;;;;;;5072111;28;20036;-75
2023/08/05 07:59:12;;;;;;;15.32;9.35;;;18.10;94.80;;;;;;5072010;28;20021;-75
2023/08/05 08:01:42;;;;;;;16.75;10.32;;;18.10;94.90;;;;;;5072088;28;20025;-74
2023/08/05 08:04:13;;;;;;;15.68;9.93;;;18.20;94.80;;;;;;5073017;28;20022;-76
2023/08/05 08:06:39;;;;;;;18.05;10.25;;;18.30;94.10;;;;;;5073067;28;20044;-76
2023/08/05 08:09:05;;;;;;;18.13;9.93;;;18.20;93.80;;;;;;5072075;28;20029;-76
2023/08/05 08:11:31;;;;;;;17.52;10.35;;;18.10;94.00;;;;;;5071941;28;20032;-76
2023/08/05 08:13:56;;;;;;;17.25;10.30;;;18.10;94.60;;;;;;5072985;28;20033;-75
2023/08/05 08:16:22;;;;;;;16.48;10.15;;;18.20;94.80;;;;;;5072006;28;20028;-77
2023/08/05 08:18:47;;;;;;;16.40;10.05;;;18.30;94.40;;;;;;5072852;28;20051;-77
2023/08/05 08:21:13;;;;;;;16.60;9.80;;;18.30;94.10;;;;;;5072821;28;20025;-77
2023/08/05 08:23:39;;;;;;;14.85;9.50;;;18.30;94.00;;;;;;5071924;28;20040;-77
2023/08/05 08:26:04;;;;;;;17.42;10.35;;;18.30;93.60;;;;;;5038846;28;20041;-77
2023/08/05 08:28:30;;;;;;;14.30;9.20;;;18.40;94.30;;;;;;5072767;28;20021;-77
2023/08/05 08:30:57;;;;;;;37.85;14.38;;;18.50;93.90;;;;;;5071682;28;20489;-76
2023/08/05 08:33:24;;;;;;;30.17;13.13;;;18.60;94.00;;;;;;5072559;28;20029;-76
2023/08/05 08:35:50;;;;;;;19.80;10.20;;;18.70;93.50;;;;;;5057593;28;20029;-76
2023/08/05 08:38:17;;;;;;;17.48;9.43;;;18.70;93.30;;;;;;5075737;28;20024;-77
2023/08/05 08:40:55;;;;;;;12.60;8.80;;;18.80;92.90;;;;;;5058752;28;20025;-77
2023/08/05 08:43:21;;;;;;;13.48;9.15;;;18.70;92.20;;;;;;5075717;28;20084;-76
2023/08/05 08:45:51;;;;;;;12.20;7.97;;;18.80;92.20;;;;;;5075397;28;20025;-77
2023/08/05 08:48:18;;;;;;;12.40;7.10;;;18.80;91.80;;;;;;5076479;28;20021;-77
2023/08/05 08:50:44;;;;;;;11.88;7.78;;;18.80;92.30;;;;;;5076281;28;20049;-76
2023/08/05 08:53:14;;;;;;;10.15;7.88;;;18.80;92.50;;;;;;5076175;28;20036;-77
2023/08/05 08:55:43;;;;;;;10.15;7.20;;;18.90;91.80;;;;;;5076285;28;20108;-77
2023/08/05 08:58:12;;;;;;;11.13;7.40;;;19.00;91.80;;;;;;5076120;28;20022;-77
2023/08/05 09:00:38;;;;;;;10.15;7.10;;;19.00;91.60;;;;;;5075119;28;20025;-76
2023/08/05 09:03:06;;;;;;;9.35;6.07;;;19.00;91.20;;;;;;5041957;28;20161;-78
2023/08/05 09:05:45;;;;;;;11.80;6.18;;;19.00;91.10;;;;;;5076143;28;20418;-76
2023/08/05 09:08:12;;;;;;;11.07;7.20;;;19.10;90.90;;;;;;5076212;28;20021;-77
2023/08/05 09:10:37;;;;;;;9.00;6.13;;;19.20;91.20;;;;;;5075994;28;20029;-76
2023/08/05 09:13:07;;;;;;;8.73;6.13;;;19.20;90.60;;;;;;5058116;28;20459;-76
2023/08/05 09:15:35;;;;;;;9.20;6.55;;;19.20;90.40;;;;;;5058636;28;20021;-75
2023/08/05 09:18:03;;;;;;;11.25;6.60;;;19.20;91.10;;;;;;5075770;28;20025;-75
2023/08/05 09:20:31;;;;;;;12.68;6.07;;;19.30;91.00;;;;;;5075704;28;20032;-75
2023/08/05 09:23:00;;;;;;;10.57;6.55;;;19.40;90.60;;;;;;5075710;28;20033;-76
2023/08/05 09:25:27;;;;;;;12.35;7.43;;;19.40;90.80;;;;;;5075720;28;20084;-76
2023/08/05 09:27:53;;;;;;;8.35;6.22;;;19.50;91.00;;;;;;5075588;28;20036;-75
2023/08/05 09:30:24;;;;;;;8.90;5.90;;;19.40;90.10;;;;;;5075688;28;20021;-76
2023/08/05 09:32:51;;;;;;;7.50;5.53;;;19.50;90.70;;;;;;5075475;28;20029;-76
2023/08/05 09:35:17;;;;;;;9.55;5.82;;;19.60;90.60;;;;;;5075304;28;20040;-75
2023/08/05 09:37:53;;;;;;;8.07;6.15;;;19.70;90.20;;;;;;5075389;28;20025;-76
2023/08/05 09:40:28;;;;;;;9.32;6.07;;;19.80;90.00;;;;;;5074415;28;20028;-76
2023/08/05 09:42:59;;;;;;;7.72;5.43;;;19.70;89.60;;;;;;5074322;28;20037;-76
2023/08/05 09:45:28;;;;;;;6.68;4.75;;;19.80;90.20;;;;;;5075331;28;20075;-76
2023/08/05 09:48:10;;;;;;;8.23;5.32;;;19.80;90.20;;;;;;5074715;28;20078;-76
2023/08/05 09:50:37;;;;;;;8.98;5.30;;;19.90;90.10;;;;;;5074277;28;20025;-75
2023/08/05 09:53:09;;;;;;;8.48;5.35;;;19.80;89.80;;;;;;5075106;28;20063;-76
2023/08/05 09:55:36;;;;;;;8.15;5.63;;;19.80;89.10;;;;;;5074159;28;20021;-76
2023/08/05 09:58:07;;;;;;;6.82;4.88;;;19.80;89.10;;;;;;5075052;28;20021;-76
2023/08/05 10:00:33;;;;;;;7.65;4.97;;;19.70;87.80;;;;;;5075045;28;20013;-76
2023/08/05 10:03:00;;;;;;;7.28;5.55;;;19.60;87.40;;;;;;5057599;28;20021;-78
2023/08/05 10:05:26;;;;;;;7.85;4.93;;;19.50;88.20;;;;;;5074113;28;20033;-76
2023/08/05 10:07:54;;;;;;;5.95;4.72;;;19.50;89.20;;;;;;5073945;28;20032;-76
2023/08/05 10:10:20;;;;;;;7.45;4.60;;;19.60;89.70;;;;;;5074837;28;20209;-76
2023/08/05 10:13:08;;;;;;;8.00;4.70;;;19.70;89.40;;;;;;5073783;28;20035;-75
2023/08/05 10:15:40;;;;;;;6.45;4.43;;;19.80;87.80;;;;;;5074762;28;20032;-76
2023/08/05 10:18:14;;;;;;;7.47;4.78;;;19.80;88.00;;;;;;5074647;28;20040;-76
2023/08/05 10:20:40;;;;;;;6.82;4.68;;;19.90;90.00;;;;;;5074591;28;20025;-76
2023/08/05 10:23:10;;;;;;;7.07;4.30;;;20.00;90.00;;;;;;5074535;28;20032;-76
2023/08/05 10:25:47;;;;;;;5.30;3.78;;;20.10;90.10;;;;;;5057112;28;20032;-77
2023/08/05 10:28:27;;;;;;;6.40;3.83;;;20.30;89.00;;;;;;5073475;28;20021;-77
2023/08/05 10:30:56;;;;;;;4.97;3.70;;;20.30;87.90;;;;;;5074536;28;20025;-77
2023/08/05 10:33:23;;;;;;;6.65;3.63;;;20.40;88.80;;;;;;5074206;28;20025;-76
2023/08/05 10:35:49;;;;;;;5.28;3.53;;;20.50;88.60;;;;;;5073332;28;20013;-77
2023/08/05 10:38:23;;;;;;;5.30;3.58;;;20.60;84.70;;;;;;5073519;28;20025;-77
2023/08/05 10:41:04;;;;;;;5.82;3.10;;;20.60;85.40;;;;;;5073073;28;20041;-77
2023/08/05 10:43:33;;;;;;;5.75;3.55;;;20.60;85.40;;;;;;5073425;28;20053;-77
2023/08/05 10:46:05;;;;;;;4.15;3.10;;;20.50;85.00;;;;;;5074100;28;20021;-76
2023/08/05 10:48:34;;;;;;;;;;;20.40;83.00;;;;;;5074671;28;20055;-77
2023/08/05 10:51:08;;;;;;;5.55;3.40;;;20.40;84.60;;;;;;5074034;28;20042;-76
2023/08/05 10:53:34;;;;;;;4.28;3.30;;;20.40;85.40;;;;;;5073028;28;20021;-76
2023/08/05 10:56:00;;;;;;;5.22;3.40;;;20.50;85.90;;;;;;5074059;28;20080;-76
2023/08/05 10:58:30;;;;;;;4.82;3.33;;;20.50;84.50;;;;;;5072953;28;20412;-76
2023/08/05 11:01:00;;;;;;;4.32;3.30;;;20.50;84.30;;;;;;5072918;28;20060;-76
2023/08/05 11:03:41;;;;;;;5.68;3.65;;;20.40;84.70;;;;;;5073952;28;20055;-76
2023/08/05 11:06:07;;;;;;;5.90;3.50;;;20.30;84.00;;;;;;5072875;28;20033;-76
2023/08/05 11:08:36;;;;;;;6.82;3.53;;;20.30;84.40;;;;;;5072835;28;20029;-76
2023/08/05 11:11:10;;;;;;;4.32;3.30;;;20.30;85.50;;;;;;5073648;28;20024;-76
2023/08/05 11:13:37;;;;;;;5.75;3.10;;;20.30;85.40;;;;;;5072713;28;20033;-76
2023/08/05 11:16:03;;;;;;;4.53;3.40;;;20.30;85.10;;;;;;5073618;28;20105;-76
2023/08/05 11:18:30;;;;;;;6.72;3.92;;;20.20;85.10;;;;;;5072628;28;20048;-76
2023/08/05 11:20:56;;;;;;;4.70;3.40;;;20.20;85.10;;;;;;5072558;28;20048;-76
2023/08/05 11:23:23;;;;;;;6.95;4.30;;;20.20;84.90;;;;;;5073504;28;20449;-76
2023/08/05 11:25:49;;;;;;;8.32;4.80;;;20.10;85.30;;;;;;5055760;28;20021;-76
2023/08/05 11:28:15;;;;;;;6.47;4.80;;;20.00;88.70;;;;;;5073464;28;20013;-76
2023/08/05 11:30:41;;;;;;;9.68;6.13;;;19.60;90.40;;;;;;5073395;28;20036;-77
2023/08/05 11:33:07;;;;;;;10.50;6.03;;;19.20;91.60;;;;;;5073296;28;20076;-77
2023/08/05 11:35:33;;;;;;;9.70;5.40;;;19.10;92.10;;;;;;5073379;28;20032;-76
2023/08/05 11:37:58;;;;;;;7.90;6.22;;;18.90;92.40;;;;;;5055848;28;20040;-76
2023/08/05 11:40:25;;;;;;;7.03;5.15;;;18.80;92.60;;;;;;5072389;28;20032;-77
2023/08/05 11:42:52;;;;;;;7.03;5.22;;;18.80;92.90;;;;;;5073276;28;20063;-77
2023/08/05 11:45:18;;;;;;;7.90;5.20;;;18.80;93.00;;;;;;5072427;28;20021;-77
2023/08/05 11:47:45;;;;;;;9.32;5.82;;;18.80;93.20;;;;;;5072340;28;20029;-77
2023/08/05 11:50:12;;;;;;;9.30;6.35;;;18.80;93.80;;;;;;5072148;28;20017;-77
2023/08/05 11:52:41;;;;;;;9.20;6.28;;;18.90;93.80;;;;;;5055723;28;20026;-77
2023/08/05 11:55:08;;;;;;;10.98;6.43;;;18.90;94.00;;;;;;5071989;28;20099;-77
2023/08/05 11:57:34;;;;;;;10.55;6.30;;;19.00;94.00;;;;;;5072057;28;20017;-77
2023/08/05 12:00:08;;;;;;;8.70;4.60;;;18.90;94.10;;;;;;5072115;28;20029;-77
2023/08/05 12:02:34;;;;;;;7.13;4.10;;;18.80;93.50;;;;;;5073182;28;20025;-78
2023/08/05 12:05:01;;;;;;;5.03;3.42;;;18.80;93.20;;;;;;5073202;28;20025;-77
2023/08/05 12:07:27;;;;;;;5.38;3.50;;;18.70;91.90;;;;;;5071987;28;20029;-77
2023/08/05 12:10:12;;;;;;;7.15;4.38;;;18.70;92.20;;;;;;5073028;28;20097;-78
2023/08/05 12:12:45;;;;;;;5.55;3.92;;;18.70;92.30;;;;;;5076309;28;20029;-77
2023/08/05 12:15:27;;;;;;;6.25;3.70;;;18.80;92.50;;;;;;5076951;28;20032;-77
2023/08/05 12:17:57;;;;;;;6.63;3.83;;;18.70;92.40;;;;;;5077055;28;20028;-77
2023/08/05 12:20:28;;;;;;;5.97;3.80;;;18.80;92.80;;;;;;5059497;28;20035;-77
2023/08/05 12:22:55;;;;;;;5.72;3.40;;;18.70;92.30;;;;;;5075903;28;20013;-76
2023/08/05 12:25:21;;;;;;;5.57;2.83;;;18.60;91.60;;;;;;5075899;28;20037;-77
2023/08/05 12:27:48;;;;;;;5.88;3.00;;;18.60;91.40;;;;;;5059200;28;20032;-77
2023/08/05 12:30:14;;;;;;;4.80;3.10;;;18.50;91.20;;;;;;5076745;28;20029;-77
2023/08/05 12:32:39;;;;;;;5.22;2.92;;;18.50;91.50;;;;;;5075657;28;20094;-77
2023/08/05 12:35:08;;;;;;;8.85;3.55;;;18.50;91.40;;;;;;5075491;28;20040;-77
2023/08/05 12:37:35;;;;;;;4.13;3.15;;;18.50;91.40;;;;;;5075558;28;20013;-77
2023/08/05 12:40:04;;;;;;;5.80;3.28;;;18.50;91.30;;;;;;5075581;28;20104;-76